Time;durP1;ratioP1;P1;durP2;ratioP2;P2;SDS_P1;SDS_P2;PMS_P1;PMS_P2;Temp;Humidity;BMP_temperature;BMP_pressure;BME280_temperature;BME280_humidity;BME280_pressure;Samples;Min_cycle;Max_cycle;Signal;HPM_P1;HPM_P2
2022/12/06 00:02:02;;;;;;;14.48;7.43;;;;;;;;;;5074448;28;20490;-72
2022/12/06 00:04:28;;;;;;;21.63;9.68;;;;;;;;;;5074427;28;20102;-72
2022/12/06 00:06:56;;;;;;;24.65;10.15;;;;;;;;;;5074568;28;20025;-72
2022/12/06 00:09:24;;;;;;;24.23;10.50;;;;;;;;;;5074335;28;20025;-71
2022/12/06 00:11:50;;;;;;;18.83;8.18;;;;;;;;;;5074302;28;20020;-72
2022/12/06 00:14:17;;;;;;;14.50;6.60;;;;;;;;;;5074415;28;20385;-72
2022/12/06 00:16:43;;;;;;;13.60;6.70;;;;;;;;;;5074146;28;20024;-72
2022/12/06 00:19:12;;;;;;;12.43;6.72;;;;;;;;;;5074482;28;20027;-72
2022/12/06 00:21:39;;;;;;;13.98;7.22;;;;;;;;;;5082937;28;20036;-72
2022/12/06 00:24:11;;;;;;;12.68;6.22;;;;;;;;;;5094786;28;20031;-71
2022/12/06 00:26:38;;;;;;;12.10;6.43;;;;;;;;;;5094456;28;20025;-71
2022/12/06 00:29:05;;;;;;;14.02;7.00;;;;;;;;;;5094634;28;20032;-71
2022/12/06 00:31:33;;;;;;;12.05;6.43;;;;;;;;;;5094464;28;20034;-72
2022/12/06 00:34:00;;;;;;;12.38;6.72;;;;;;;;;;5094302;28;20526;-72
2022/12/06 00:36:28;;;;;;;13.23;7.30;;;;;;;;;;5094188;28;20036;-72
2022/12/06 00:38:54;;;;;;;13.63;7.43;;;;;;;;;;5094264;28;20024;-72
2022/12/06 00:41:24;;;;;;;17.48;7.72;;;;;;;;;;5093568;28;20036;-71
2022/12/06 00:43:51;;;;;;;32.53;12.65;;;;;;;;;;5093963;28;20392;-72
2022/12/06 00:46:19;;;;;;;34.15;14.60;;;;;;;;;;5094030;28;20012;-72
2022/12/06 00:48:45;;;;;;;31.30;14.63;;;;;;;;;;5094245;28;20400;-72
2022/12/06 00:51:12;;;;;;;30.55;13.23;;;;;;;;;;5093893;28;20016;-72
2022/12/06 00:53:39;;;;;;;13.18;6.88;;;;;;;;;;5075855;28;20034;-72
2022/12/06 00:56:06;;;;;;;12.10;6.28;;;;;;;;;;5092457;28;20042;-72
2022/12/06 00:58:32;;;;;;;15.80;8.05;;;;;;;;;;5093746;28;20096;-73
2022/12/06 01:01:12;;;;;;;98.30;33.88;;;;;;;;;;5093765;28;20046;-72
2022/12/06 01:03:39;;;;;;;60.20;22.10;;;;;;;;;;5093811;28;20141;-72
2022/12/06 01:06:06;;;;;;;37.55;14.73;;;;;;;;;;5093614;28;20492;-72
2022/12/06 01:08:33;;;;;;;32.83;13.60;;;;;;;;;;5093542;28;20032;-72
2022/12/06 01:11:00;;;;;;;21.80;9.70;;;;;;;;;;5075292;28;20081;-72
2022/12/06 01:13:26;;;;;;;13.95;6.50;;;;;;;;;;5093610;28;20020;-72
2022/12/06 01:15:53;;;;;;;16.02;7.13;;;;;;;;;;5093511;28;20020;-72
2022/12/06 01:18:19;;;;;;;11.18;5.97;;;;;;;;;;5093667;28;20035;-72
2022/12/06 01:20:46;;;;;;;22.85;11.77;;;;;;;;;;5093110;28;20388;-72
2022/12/06 01:23:13;;;;;;;15.77;8.30;;;;;;;;;;5093121;28;20042;-72
2022/12/06 01:25:39;;;;;;;15.43;7.75;;;;;;;;;;5092849;28;20384;-72
2022/12/06 01:28:05;;;;;;;14.20;7.38;;;;;;;;;;5092979;28;20366;-72
2022/12/06 01:30:32;;;;;;;13.90;6.95;;;;;;;;;;5093385;28;20031;-72
2022/12/06 01:32:58;;;;;;;12.65;7.60;;;;;;;;;;5093233;28;20026;-72
2022/12/06 01:35:24;;;;;;;14.65;7.00;;;;;;;;;;5092881;28;20050;-73
2022/12/06 01:37:50;;;;;;;15.75;7.75;;;;;;;;;;5093025;28;20026;-72
2022/12/06 01:40:17;;;;;;;13.75;6.50;;;;;;;;;;5092715;28;20043;-72
2022/12/06 01:42:43;;;;;;;11.45;5.90;;;;;;;;;;5092821;28;20038;-72
2022/12/06 01:45:10;;;;;;;9.82;5.75;;;;;;;;;;5093086;28;20024;-72
2022/12/06 01:47:41;;;;;;;10.32;6.25;;;;;;;;;;5092930;28;20027;-72
2022/12/06 01:50:24;;;;;;;16.25;5.70;;;;;;;;;;5092733;28;20024;-72
2022/12/06 01:53:00;;;;;;;10.80;5.65;;;;;;;;;;5092768;28;20030;-72
2022/12/06 01:55:28;;;;;;;10.70;5.60;;;;;;;;;;5092640;28;20033;-72
2022/12/06 01:57:57;;;;;;;13.27;5.63;;;;;;;;;;5092757;28;20022;-72
2022/12/06 02:00:24;;;;;;;11.10;5.88;;;;;;;;;;5092740;28;20493;-72
2022/12/06 02:02:50;;;;;;;11.98;6.57;;;;;;;;;;5092397;28;20370;-72
2022/12/06 02:05:17;;;;;;;12.40;7.22;;;;;;;;;;5092931;28;20020;-72
2022/12/06 02:07:44;;;;;;;12.60;6.70;;;;;;;;;;5092385;28;20481;-72
2022/12/06 02:10:10;;;;;;;17.00;7.40;;;;;;;;;;5092252;28;20042;-71
2022/12/06 02:12:37;;;;;;;17.20;8.05;;;;;;;;;;5092288;28;20032;-72
2022/12/06 02:15:03;;;;;;;14.02;7.93;;;;;;;;;;5092395;28;20489;-72
2022/12/06 02:17:38;;;;;;;13.73;8.10;;;;;;;;;;5092299;28;20036;-72
2022/12/06 02:20:04;;;;;;;14.40;7.55;;;;;;;;;;5092658;28;20023;-72
2022/12/06 02:22:39;;;;;;;12.20;6.63;;;;;;;;;;5091773;28;20036;-72
2022/12/06 02:25:09;;;;;;;17.10;7.65;;;;;;;;;;5092508;28;20084;-72
2022/12/06 02:27:41;;;;;;;24.10;11.43;;;;;;;;;;5092307;28;20020;-72
2022/12/06 02:30:11;;;;;;;15.32;7.35;;;;;;;;;;5092260;28;20044;-72
2022/12/06 02:32:56;;;;;;;9.57;5.63;;;;;;;;;;5092431;28;20024;-72
2022/12/06 02:35:25;;;;;;;32.97;12.65;;;;;;;;;;5092126;28;20509;-72
2022/12/06 02:37:54;;;;;;;130.15;44.03;;;;;;;;;;5091721;28;20495;-72
2022/12/06 02:40:23;;;;;;;126.30;44.10;;;;;;;;;;5092164;28;20066;-72
2022/12/06 02:42:53;;;;;;;39.47;15.40;;;;;;;;;;5091999;28;20032;-72
2022/12/06 02:45:22;;;;;;;21.88;8.10;;;;;;;;;;5092124;28;20603;-72
2022/12/06 02:47:49;;;;;;;10.20;6.10;;;;;;;;;;5092019;28;20557;-72
2022/12/06 02:50:17;;;;;;;9.40;5.75;;;;;;;;;;5092320;28;20024;-72
2022/12/06 02:52:46;;;;;;;8.75;5.15;;;;;;;;;;5091869;28;20032;-72
2022/12/06 02:55:13;;;;;;;8.25;5.28;;;;;;;;;;5092159;28;20066;-72
2022/12/06 02:57:39;;;;;;;8.15;5.22;;;;;;;;;;5092042;28;20028;-72
2022/12/06 03:00:24;;;;;;;11.80;6.10;;;;;;;;;;5073888;28;20477;-72
2022/12/06 03:02:51;;;;;;;37.30;14.77;;;;;;;;;;5091874;28;20040;-72
2022/12/06 03:05:23;;;;;;;21.58;10.38;;;;;;;;;;5092074;28;20024;-72
2022/12/06 03:07:50;;;;;;;657.95;256.75;;;;;;;;;;5091401;28;20028;-72
2022/12/06 03:10:32;;;;;;;599.03;222.68;;;;;;;;;;5091775;28;20541;-72
2022/12/06 03:13:01;;;;;;;163.13;52.75;;;;;;;;;;5091834;28;20473;-72
2022/12/06 03:15:46;;;;;;;296.17;92.88;;;;;;;;;;5091751;28;20028;-72
2022/12/06 03:18:30;;;;;;;219.57;67.22;;;;;;;;;;5091781;28;20030;-72
2022/12/06 03:21:08;;;;;;;31.70;12.55;;;;;;;;;;5093852;28;20027;-72
2022/12/06 03:23:37;;;;;;;14.82;6.28;;;;;;;;;;5095627;28;20040;-72
2022/12/06 03:26:05;;;;;;;8.45;4.60;;;;;;;;;;5095784;28;20036;-72
2022/12/06 03:28:31;;;;;;;10.10;5.45;;;;;;;;;;5095426;28;20028;-72
2022/12/06 03:31:01;;;;;;;14.90;8.52;;;;;;;;;;5095547;28;20020;-72
2022/12/06 03:33:28;;;;;;;18.17;12.57;;;;;;;;;;5095364;28;20054;-72
2022/12/06 03:35:55;;;;;;;18.05;11.50;;;;;;;;;;5095432;28;20031;-72
2022/12/06 03:38:25;;;;;;;36.08;19.20;;;;;;;;;;5095632;28;20032;-72
2022/12/06 03:40:53;;;;;;;26.23;15.15;;;;;;;;;;5095016;28;20040;-72
2022/12/06 03:43:19;;;;;;;26.10;13.38;;;;;;;;;;5077225;28;20044;-72
2022/12/06 03:45:52;;;;;;;175.35;114.43;;;;;;;;;;5095046;28;20020;-72
2022/12/06 03:48:21;;;;;;;24.35;16.25;;;;;;;;;;5095216;28;20032;-72
2022/12/06 03:50:51;;;;;;;39.33;27.23;;;;;;;;;;5094823;28;20031;-72
2022/12/06 03:53:18;;;;;;;28.70;21.27;;;;;;;;;;5094981;28;20069;-72
2022/12/06 03:55:44;;;;;;;11.73;7.00;;;;;;;;;;5094892;28;20496;-72
2022/12/06 03:58:11;;;;;;;7.40;5.30;;;;;;;;;;5094941;28;20032;-72
2022/12/06 04:00:38;;;;;;;10.20;6.15;;;;;;;;;;5094598;28;20035;-72
2022/12/06 04:03:04;;;;;;;7.18;4.40;;;;;;;;;;5076717;28;20047;-72
2022/12/06 04:05:31;;;;;;;17.75;11.13;;;;;;;;;;5094210;28;20358;-72
2022/12/06 04:07:57;;;;;;;7.97;4.68;;;;;;;;;;5094831;28;20034;-72
2022/12/06 04:10:24;;;;;;;12.20;8.32;;;;;;;;;;5094985;28;20031;-72
2022/12/06 04:12:59;;;;;;;11.32;7.65;;;;;;;;;;5076436;28;20042;-73
2022/12/06 04:15:26;;;;;;;6.13;3.30;;;;;;;;;;5094657;28;20038;-72
2022/12/06 04:23:27;;;;;;;6.60;3.72;;;;;;;;;;5094434;28;20040;-72
2022/12/06 04:25:53;;;;;;;6.95;4.03;;;;;;;;;;5094171;28;20073;-72
2022/12/06 04:39:21;;;;;;;6.05;3.22;;;;;;;;;;5093982;28;20054;-72
2022/12/06 04:44:33;;;;;;;6.10;3.00;;;;;;;;;;5093981;28;20016;-72
2022/12/06 04:46:59;;;;;;;3.95;2.90;;;;;;;;;;5094167;28;20125;-72
2022/12/06 04:49:26;;;;;;;4.35;2.90;;;;;;;;;;5093952;28;20028;-72
2022/12/06 04:51:53;;;;;;;3.45;2.60;;;;;;;;;;5093922;28;20027;-72
2022/12/06 04:54:20;;;;;;;7.72;2.90;;;;;;;;;;5094183;28;20036;-72
2022/12/06 04:56:46;;;;;;;4.47;3.05;;;;;;;;;;5093730;28;20036;-72
2022/12/06 04:59:13;;;;;;;4.95;3.33;;;;;;;;;;5093599;28;20050;-72
2022/12/06 05:01:39;;;;;;;8.80;3.88;;;;;;;;;;5093779;28;20042;-72
2022/12/06 05:04:05;;;;;;;6.25;3.72;;;;;;;;;;5075488;28;20064;-72
2022/12/06 05:06:32;;;;;;;6.80;4.07;;;;;;;;;;5093469;28;20484;-72
2022/12/06 05:08:58;;;;;;;7.85;4.47;;;;;;;;;;5093637;28;20024;-72
2022/12/06 05:11:24;;;;;;;9.80;4.63;;;;;;;;;;5093631;28;20073;-72
2022/12/06 05:13:51;;;;;;;8.10;5.15;;;;;;;;;;5093571;28;20031;-72
2022/12/06 05:16:17;;;;;;;9.05;5.38;;;;;;;;;;5093095;28;20024;-72
2022/12/06 05:18:43;;;;;;;8.50;5.28;;;;;;;;;;5093317;28;20034;-72
2022/12/06 05:21:14;;;;;;;8.15;4.80;;;;;;;;;;5093237;28;20019;-72
2022/12/06 05:23:41;;;;;;;10.27;3.67;;;;;;;;;;5093567;28;20046;-72
2022/12/06 05:26:08;;;;;;;13.63;5.82;;;;;;;;;;5093199;28;20515;-72
2022/12/06 05:28:35;;;;;;;8.38;4.40;;;;;;;;;;5093359;28;20032;-72
2022/12/06 05:31:01;;;;;;;5.70;3.17;;;;;;;;;;5092864;28;20036;-71
2022/12/06 05:33:28;;;;;;;4.28;2.75;;;;;;;;;;5075406;28;20036;-72
2022/12/06 05:35:54;;;;;;;7.18;3.30;;;;;;;;;;5092969;28;20020;-72
2022/12/06 05:38:21;;;;;;;5.65;3.33;;;;;;;;;;5074854;28;20036;-72
2022/12/06 05:40:47;;;;;;;4.10;2.85;;;;;;;;;;5092647;28;20039;-71
2022/12/06 05:43:14;;;;;;;3.55;2.35;;;;;;;;;;5092225;28;20036;-72
2022/12/06 05:45:40;;;;;;;6.75;2.60;;;;;;;;;;5074317;28;20028;-72
2022/12/06 05:48:07;;;;;;;3.70;2.45;;;;;;;;;;5093018;28;20032;-72
2022/12/06 05:50:33;;;;;;;5.50;3.50;;;;;;;;;;5092789;28;20114;-72
2022/12/06 05:53:00;;;;;;;5.72;3.42;;;;;;;;;;5092874;28;20024;-72
2022/12/06 05:55:26;;;;;;;5.13;3.10;;;;;;;;;;5092924;28;20040;-72
2022/12/06 05:57:53;;;;;;;7.53;4.18;;;;;;;;;;5092953;28;20031;-72
2022/12/06 06:00:19;;;;;;;12.60;5.55;;;;;;;;;;5092586;28;20024;-72
2022/12/06 06:02:46;;;;;;;19.63;7.28;;;;;;;;;;5092632;28;20032;-72
2022/12/06 06:05:13;;;;;;;15.95;6.85;;;;;;;;;;5092362;28;20057;-72
2022/12/06 06:07:39;;;;;;;14.63;6.03;;;;;;;;;;5092858;28;20024;-72
2022/12/06 06:10:06;;;;;;;12.68;6.05;;;;;;;;;;5092504;28;20415;-72
2022/12/06 06:12:33;;;;;;;10.13;4.85;;;;;;;;;;5092158;28;20477;-72
2022/12/06 06:14:59;;;;;;;6.85;4.18;;;;;;;;;;5092074;28;20028;-72
2022/12/06 06:17:25;;;;;;;8.25;4.88;;;;;;;;;;5092318;28;20019;-72
2022/12/06 06:19:52;;;;;;;12.07;5.97;;;;;;;;;;5092254;28;20020;-72
2022/12/06 06:22:18;;;;;;;27.80;12.65;;;;;;;;;;5092190;28;20044;-72
2022/12/06 06:24:45;;;;;;;47.55;20.90;;;;;;;;;;5091953;28;20026;-72
2022/12/06 06:27:11;;;;;;;32.30;12.23;;;;;;;;;;5091875;28;20065;-72
2022/12/06 06:29:37;;;;;;;22.27;9.73;;;;;;;;;;5092009;28;20023;-72
2022/12/06 06:32:04;;;;;;;46.13;15.27;;;;;;;;;;5092500;28;20032;-72
2022/12/06 06:34:30;;;;;;;26.25;9.90;;;;;;;;;;5091964;28;20382;-72
2022/12/06 06:36:56;;;;;;;12.82;6.03;;;;;;;;;;5074697;28;20032;-72
2022/12/06 06:39:23;;;;;;;10.90;4.82;;;;;;;;;;5091971;28;20058;-72
2022/12/06 06:41:49;;;;;;;8.63;4.95;;;;;;;;;;5091924;28;20050;-71
2022/12/06 06:44:15;;;;;;;12.98;6.20;;;;;;;;;;5091796;28;20024;-70
2022/12/06 06:46:42;;;;;;;10.07;5.38;;;;;;;;;;5091502;28;20028;-72
2022/12/06 06:49:08;;;;;;;11.00;5.43;;;;;;;;;;5091486;28;20099;-72
2022/12/06 06:51:34;;;;;;;13.35;6.50;;;;;;;;;;5092236;28;20023;-69
2022/12/06 06:54:01;;;;;;;13.27;6.18;;;;;;;;;;5092860;28;20028;-69
2022/12/06 06:56:27;;;;;;;10.73;5.63;;;;;;;;;;5095771;28;20034;-69
2022/12/06 06:58:53;;;;;;;11.05;5.45;;;;;;;;;;5077222;28;20012;-69
2022/12/06 07:01:21;;;;;;;15.60;7.53;;;;;;;;;;5095663;28;20484;-72
2022/12/06 07:03:48;;;;;;;31.08;10.77;;;;;;;;;;5095237;28;20034;-73
2022/12/06 07:06:14;;;;;;;37.63;12.32;;;;;;;;;;5095048;28;20297;-71
2022/12/06 07:08:41;;;;;;;22.23;9.60;;;;;;;;;;5095751;28;20077;-71
2022/12/06 07:11:08;;;;;;;12.45;6.03;;;;;;;;;;5095759;28;20020;-72
2022/12/06 07:13:35;;;;;;;14.30;5.93;;;;;;;;;;5095750;28;20026;-73
2022/12/06 07:16:05;;;;;;;16.38;8.07;;;;;;;;;;5087828;28;20035;-72
2022/12/06 07:18:32;;;;;;;13.73;7.27;;;;;;;;;;5094542;28;20028;-73
2022/12/06 07:21:03;;;;;;;38.45;16.60;;;;;;;;;;5092528;28;20020;-73
2022/12/06 07:23:29;;;;;;;39.25;19.33;;;;;;;;;;5075001;28;20543;-72
2022/12/06 07:26:08;;;;;;;96.88;36.17;;;;;;;;;;5078732;28;20394;-72
2022/12/06 07:28:35;;;;;;;63.65;25.48;;;;;;;;;;5074561;28;20495;-72
2022/12/06 07:31:09;;;;;;;27.85;11.18;;;;;;;;;;5074318;28;20017;-72
2022/12/06 07:33:35;;;;;;;38.80;15.77;;;;;;;;;;5080571;28;20028;-73
2022/12/06 07:36:01;;;;;;;16.85;9.07;;;;;;;;;;5053588;28;20380;-73
2022/12/06 07:38:28;;;;;;;16.65;8.35;;;;;;;;;;5088344;28;20032;-73
2022/12/06 07:40:59;;;;;;;45.45;18.55;;;;;;;;;;5081345;28;20036;-72
2022/12/06 07:46:11;;;;;;;78.78;27.17;;;;;;;;;;5114551;28;20088;-72
2022/12/06 07:48:37;;;;;;;103.60;29.95;;;;;;;;;;5080263;28;20024;-73
2022/12/06 07:51:04;;;;;;;55.53;18.65;;;;;;;;;;5076213;28;20046;-73
2022/12/06 07:53:30;;;;;;;98.18;31.17;;;;;;;;;;5086903;28;20396;-73
2022/12/06 07:55:56;;;;;;;64.10;25.38;;;;;;;;;;5114306;28;20026;-73
2022/12/06 07:58:23;;;;;;;59.80;21.00;;;;;;;;;;5115133;28;20469;-73
2022/12/06 08:00:49;;;;;;;34.20;13.45;;;;;;;;;;5115352;28;20030;-73
2022/12/06 08:03:16;;;;;;;19.75;10.68;;;;;;;;;;5114854;28;20034;-73
2022/12/06 08:05:42;;;;;;;28.98;14.65;;;;;;;;;;5114452;28;20034;-73
2022/12/06 08:08:09;;;;;;;18.63;11.18;;;;;;;;;;5115307;28;20030;-73
2022/12/06 08:10:36;;;;;;;19.38;10.50;;;;;;;;;;5114406;28;20020;-73
2022/12/06 08:13:02;;;;;;;15.95;9.07;;;;;;;;;;5114868;28;20072;-73
2022/12/06 08:15:29;;;;;;;13.68;8.35;;;;;;;;;;5114738;28;20020;-73
2022/12/06 08:17:55;;;;;;;12.93;7.10;;;;;;;;;;5114817;28;20042;-73
2022/12/06 08:20:21;;;;;;;16.38;9.60;;;;;;;;;;5096758;28;20012;-73
2022/12/06 08:22:48;;;;;;;10.63;6.65;;;;;;;;;;5096036;28;20032;-73
2022/12/06 08:25:14;;;;;;;10.20;6.20;;;;;;;;;;5093650;28;20400;-73
2022/12/06 08:27:40;;;;;;;14.60;7.32;;;;;;;;;;5094416;28;20113;-73
2022/12/06 08:30:07;;;;;;;9.63;5.93;;;;;;;;;;5094307;28;20020;-73
2022/12/06 08:32:34;;;;;;;10.10;6.72;;;;;;;;;;5093274;28;20020;-72
2022/12/06 08:35:00;;;;;;;12.63;7.75;;;;;;;;;;5066156;28;20020;-72
2022/12/06 08:37:27;;;;;;;10.60;6.55;;;;;;;;;;5089769;28;20024;-72
2022/12/06 08:39:53;;;;;;;14.27;7.88;;;;;;;;;;5083988;28;20036;-73
2022/12/06 08:42:20;;;;;;;8.30;5.53;;;;;;;;;;5065393;28;20033;-73
2022/12/06 08:44:50;;;;;;;8.18;5.25;;;;;;;;;;5069150;28;20031;-71
2022/12/06 08:47:16;;;;;;;9.35;5.65;;;;;;;;;;5073456;28;20039;-71
2022/12/06 08:49:43;;;;;;;14.18;8.13;;;;;;;;;;5062090;28;20033;-73
2022/12/06 08:52:09;;;;;;;8.32;5.53;;;;;;;;;;5053550;28;20025;-73
2022/12/06 08:54:36;;;;;;;11.70;5.63;;;;;;;;;;5070326;28;20020;-73
2022/12/06 08:57:03;;;;;;;9.45;6.10;;;;;;;;;;5092724;28;20021;-73
2022/12/06 08:59:29;;;;;;;9.38;5.88;;;;;;;;;;5077895;28;20021;-73
2022/12/06 09:01:56;;;;;;;11.77;7.20;;;;;;;;;;5072020;28;20033;-73
2022/12/06 09:04:22;;;;;;;10.88;6.70;;;;;;;;;;5071531;28;20028;-73
2022/12/06 09:06:48;;;;;;;12.10;7.38;;;;;;;;;;5062820;28;20039;-73
2022/12/06 09:09:16;;;;;;;11.18;6.80;;;;;;;;;;5069255;28;20023;-73
2022/12/06 09:11:42;;;;;;;10.82;7.18;;;;;;;;;;5071869;28;20493;-73
2022/12/06 09:14:10;;;;;;;12.77;6.68;;;;;;;;;;5070641;28;20040;-73
2022/12/06 09:16:36;;;;;;;8.10;5.53;;;;;;;;;;5071748;28;20074;-73
2022/12/06 09:19:03;;;;;;;7.65;5.47;;;;;;;;;;5070685;28;20043;-73
2022/12/06 09:21:30;;;;;;;6.93;4.63;;;;;;;;;;5050696;28;20027;-73
2022/12/06 09:23:57;;;;;;;8.63;5.05;;;;;;;;;;5051580;28;20033;-73
2022/12/06 09:26:24;;;;;;;8.45;4.82;;;;;;;;;;5052731;28;20031;-73
2022/12/06 09:28:51;;;;;;;4.13;3.10;;;;;;;;;;5068839;28;20034;-73
2022/12/06 09:31:18;;;;;;;9.27;5.07;;;;;;;;;;5053691;28;20034;-73
2022/12/06 09:33:44;;;;;;;9.23;6.13;;;;;;;;;;5071963;28;20031;-74
2022/12/06 09:36:13;;;;;;;7.10;3.90;;;;;;;;;;5071863;28;20016;-74
2022/12/06 09:38:50;;;;;;;5.03;3.08;;;;;;;;;;5082562;27;20973;-73
2022/12/06 09:41:27;;;;;;;4.72;3.13;;;;;;;;;;5075471;28;20766;-73
2022/12/06 09:44:02;;;;;;;10.10;5.07;;;;;;;;;;5087865;28;20013;-73
2022/12/06 09:46:44;;;;;;;6.00;3.88;;;;;;;;;;5089455;28;20024;-73
2022/12/06 09:49:10;;;;;;;13.65;7.97;;;;;;;;;;5089424;28;20030;-73
2022/12/06 09:51:39;;;;;;;8.75;4.72;;;;;;;;;;5089270;28;20042;-72
2022/12/06 09:54:24;;;;;;;16.88;9.40;;;;;;;;;;5088522;28;20498;-73
2022/12/06 09:56:54;;;;;;;5.43;3.72;;;;;;;;;;5088958;28;20481;-73
2022/12/06 09:59:41;;;;;;;15.80;9.45;;;;;;;;;;5089061;28;20028;-74
2022/12/06 10:02:13;;;;;;;5.43;3.30;;;;;;;;;;5089159;28;20024;-72
2022/12/06 10:04:39;;;;;;;3.63;2.70;;;;;;;;;;5088827;28;20032;-73
2022/12/06 10:07:18;;;;;;;4.43;3.47;;;;;;;;;;5083582;28;20024;-72
2022/12/06 10:10:03;;;;;;;4.53;3.45;;;;;;;;;;5085303;28;20028;-73
2022/12/06 10:12:32;;;;;;;55.90;34.67;;;;;;;;;;5084997;28;20020;-74
2022/12/06 10:15:05;;;;;;;3.05;2.45;;;;;;;;;;5088880;28;20040;-73
2022/12/06 10:17:34;;;;;;;2.13;1.73;;;;;;;;;;5088761;28;20044;-74
2022/12/06 10:20:16;;;;;;;3.30;2.38;;;;;;;;;;5088496;28;20023;-73
2022/12/06 10:22:42;;;;;;;;;;;;;;;;;;5088466;28;20497;-72
2022/12/06 10:25:08;;;;;;;4.75;2.75;;;;;;;;;;5088238;28;19933;-72
2022/12/06 10:27:34;;;;;;;3.80;2.45;;;;;;;;;;5088612;28;20478;-73
2022/12/06 10:30:03;;;;;;;3.70;2.40;;;;;;;;;;5088309;28;20085;-74
2022/12/06 10:32:48;;;;;;;4.05;2.40;;;;;;;;;;5088339;28;20523;-73
2022/12/06 10:35:28;;;;;;;3.38;2.40;;;;;;;;;;5087888;28;20474;-73
2022/12/06 10:37:57;;;;;;;5.95;3.85;;;;;;;;;;5088005;28;20513;-73
2022/12/06 10:40:26;;;;;;;4.65;2.40;;;;;;;;;;5088468;28;20023;-73
2022/12/06 10:43:04;;;;;;;2.30;2.10;;;;;;;;;;5067987;28;20024;-73
2022/12/06 10:48:29;;;;;;;2.80;2.10;;;;;;;;;;5064398;28;20017;-72
2022/12/06 10:51:01;;;;;;;3.92;3.22;;;;;;;;;;5054593;28;20023;-73
2022/12/06 10:53:29;;;;;;;2.30;2.00;;;;;;;;;;5054428;28;20025;-74
2022/12/06 10:55:58;;;;;;;3.22;2.30;;;;;;;;;;5054407;28;20389;-73
2022/12/06 10:58:27;;;;;;;2.15;1.75;;;;;;;;;;5054763;28;20444;-74
2022/12/06 11:00:56;;;;;;;3.70;2.10;;;;;;;;;;5073519;28;20020;-73
2022/12/06 11:03:26;;;;;;;2.75;1.83;;;;;;;;;;5073535;28;20040;-73
2022/12/06 11:06:11;;;;;;;3.97;2.30;;;;;;;;;;5073677;28;20555;-73
2022/12/06 11:08:46;;;;;;;4.30;2.80;;;;;;;;;;5074330;28;20028;-73
2022/12/06 11:11:18;;;;;;;4.93;2.50;;;;;;;;;;5074158;28;20031;-74
2022/12/06 11:13:49;;;;;;;4.32;2.33;;;;;;;;;;5074090;28;20021;-74
2022/12/06 11:16:15;;;;;;;3.22;2.50;;;;;;;;;;5074236;28;20050;-73
2022/12/06 11:18:42;;;;;;;1.63;1.40;;;;;;;;;;5073797;28;20404;-74
2022/12/06 11:21:11;;;;;;;1.50;1.38;;;;;;;;;;5073795;28;20013;-74
2022/12/06 11:23:49;;;;;;;2.22;1.33;;;;;;;;;;5074090;28;20393;-74
2022/12/06 11:26:21;;;;;;;5.43;1.13;;;;;;;;;;5074065;28;20008;-73
2022/12/06 11:28:54;;;;;;;1.45;1.30;;;;;;;;;;5073889;28;20021;-74
2022/12/06 11:31:30;;;;;;;1.40;1.20;;;;;;;;;;5073813;28;20028;-73
2022/12/06 11:33:58;;;;;;;2.30;1.60;;;;;;;;;;5073218;28;20025;-73
2022/12/06 11:36:25;;;;;;;1.67;1.23;;;;;;;;;;5073543;28;20032;-74
2022/12/06 11:38:52;;;;;;;2.67;1.10;;;;;;;;;;5073695;28;20530;-74
2022/12/06 11:41:21;;;;;;;4.93;3.60;;;;;;;;;;5072166;28;20021;-73
2022/12/06 11:43:48;;;;;;;3.25;1.80;;;;;;;;;;5073495;28;20069;-74
2022/12/06 11:46:15;;;;;;;2.95;1.30;;;;;;;;;;5089261;28;20028;-73
2022/12/06 11:48:41;;;;;;;1.50;1.40;;;;;;;;;;5073157;28;20028;-73
2022/12/06 11:51:15;;;;;;;2.05;1.63;;;;;;;;;;5073335;28;20020;-73
2022/12/06 11:53:47;;;;;;;3.78;2.05;;;;;;;;;;5073705;28;20029;-73
2022/12/06 11:56:25;;;;;;;2.53;1.42;;;;;;;;;;5073852;28;20029;-74
2022/12/06 11:59:02;;;;;;;1.52;1.35;;;;;;;;;;5073250;28;20082;-74
2022/12/06 12:01:39;;;;;;;5.43;2.30;;;;;;;;;;5072618;28;20021;-74
2022/12/06 12:04:38;;;;;;;2.35;1.60;;;;;;;;;;5072638;28;20489;-73
2022/12/06 12:07:10;;;;;;;4.90;2.05;;;;;;;;;;5030978;28;20526;-74
2022/12/06 12:09:45;;;;;;;5.05;2.92;;;;;;;;;;5030883;28;20047;-73
2022/12/06 12:12:15;;;;;;;5.15;3.30;;;;;;;;;;5030965;28;20117;-73
2022/12/06 12:14:41;;;;;;;5.25;2.80;;;;;;;;;;5030736;28;20040;-73
2022/12/06 12:17:19;;;;;;;4.90;3.15;;;;;;;;;;5030467;28;20048;-74
2022/12/06 12:20:05;;;;;;;5.53;3.33;;;;;;;;;;5014144;28;20029;-73
2022/12/06 12:22:35;;;;;;;5.18;2.90;;;;;;;;;;5030455;28;20049;-73
2022/12/06 12:25:20;;;;;;;10.50;6.20;;;;;;;;;;5030727;28;20018;-73
2022/12/06 12:27:48;;;;;;;8.32;5.00;;;;;;;;;;5030520;28;20029;-73
2022/12/06 12:30:14;;;;;;;7.93;5.18;;;;;;;;;;5030475;28;20410;-74
2022/12/06 12:32:41;;;;;;;8.55;4.85;;;;;;;;;;5030262;28;20036;-73
2022/12/06 12:35:24;;;;;;;7.10;4.70;;;;;;;;;;5030259;28;20033;-73
2022/12/06 12:37:54;;;;;;;13.02;7.40;;;;;;;;;;5030121;28;20712;-73
2022/12/06 12:40:25;;;;;;;15.40;7.18;;;;;;;;;;5030576;28;20040;-74
2022/12/06 12:43:18;;;;;;;13.30;7.03;;;;;;;;;;5051113;28;20039;-73
2022/12/06 12:46:03;;;;;;;10.70;6.38;;;;;;;;;;5021008;28;20043;-74
2022/12/06 12:48:29;;;;;;;12.43;6.28;;;;;;;;;;5027976;28;20017;-74
2022/12/06 12:50:58;;;;;;;11.35;6.00;;;;;;;;;;5030116;28;20037;-73
2022/12/06 12:53:45;;;;;;;12.60;6.43;;;;;;;;;;5030315;28;20051;-73
2022/12/06 12:56:16;;;;;;;9.02;5.80;;;;;;;;;;5029960;28;20457;-73
2022/12/06 12:58:43;;;;;;;8.15;4.82;;;;;;;;;;5029876;28;20049;-73
2022/12/06 13:01:24;;;;;;;13.90;7.95;;;;;;;;;;5013329;28;20025;-74
2022/12/06 13:03:52;;;;;;;9.00;5.85;;;;;;;;;;5029801;28;20072;-74
2022/12/06 13:06:38;;;;;;;10.88;5.40;;;;;;;;;;5029985;28;20029;-73
2022/12/06 13:09:06;;;;;;;8.07;4.57;;;;;;;;;;5029901;28;20037;-74
2022/12/06 13:11:38;;;;;;;8.45;4.75;;;;;;;;;;5029574;28;20027;-73
2022/12/06 13:14:05;;;;;;;8.70;5.20;;;;;;;;;;5029889;28;20037;-73
2022/12/06 13:16:33;;;;;;;7.53;4.57;;;;;;;;;;5029331;28;20033;-73
2022/12/06 13:19:01;;;;;;;9.07;5.18;;;;;;;;;;5026982;28;20056;-73
2022/12/06 13:21:35;;;;;;;7.05;4.65;;;;;;;;;;5032186;28;20022;-73
2022/12/06 13:24:14;;;;;;;6.13;4.30;;;;;;;;;;5071709;28;20078;-73
2022/12/06 13:26:52;;;;;;;8.52;4.88;;;;;;;;;;5071957;28;20029;-73
2022/12/06 13:29:27;;;;;;;6.10;4.43;;;;;;;;;;5071490;28;20028;-73
2022/12/06 13:31:55;;;;;;;10.00;4.82;;;;;;;;;;5070651;28;20035;-73
2022/12/06 13:34:24;;;;;;;7.22;4.90;;;;;;;;;;5070425;28;20473;-74
2022/12/06 13:36:51;;;;;;;8.13;4.95;;;;;;;;;;5070718;28;20039;-73
2022/12/06 13:39:29;;;;;;;7.25;4.53;;;;;;;;;;5071217;28;20051;-74
2022/12/06 13:44:42;;;;;;;7.93;5.32;;;;;;;;;;5051124;28;20037;-74
2022/12/06 13:47:27;;;;;;;6.22;4.70;;;;;;;;;;5051546;28;20472;-74
2022/12/06 13:50:00;;;;;;;12.32;5.00;;;;;;;;;;5055700;28;20024;-74
2022/12/06 13:52:42;;;;;;;5.95;4.15;;;;;;;;;;5070833;28;20519;-74
2022/12/06 13:55:38;;;;;;;7.10;3.63;;;;;;;;;;5071506;28;20392;-74
2022/12/06 13:58:24;;;;;;;8.32;3.95;;;;;;;;;;5008539;28;20064;-73
2022/12/06 14:00:50;;;;;;;6.78;4.53;;;;;;;;;;5009744;28;20230;-74
2022/12/06 14:03:17;;;;;;;7.05;4.15;;;;;;;;;;5009778;28;20044;-74
2022/12/06 14:06:01;;;;;;;5.68;4.15;;;;;;;;;;5006579;28;20040;-74
2022/12/06 14:08:37;;;;;;;6.50;3.85;;;;;;;;;;5008770;28;20034;-74
2022/12/06 14:11:06;;;;;;;7.18;4.88;;;;;;;;;;5009487;28;20030;-74
2022/12/06 14:13:32;;;;;;;8.75;5.18;;;;;;;;;;5009163;28;20040;-74
2022/12/06 14:16:00;;;;;;;10.27;6.05;;;;;;;;;;5008932;28;20410;-74
2022/12/06 14:18:27;;;;;;;8.82;5.60;;;;;;;;;;5008311;28;20042;-74
2022/12/06 14:20:54;;;;;;;7.97;5.53;;;;;;;;;;5007354;28;20030;-74
2022/12/06 14:23:31;;;;;;;11.40;5.55;;;;;;;;;;5010940;28;20029;-73
2022/12/06 14:26:11;;;;;;;8.15;5.32;;;;;;;;;;5020874;28;20546;-73
2022/12/06 14:28:38;;;;;;;9.03;5.80;;;;;;;;;;5011271;28;20034;-73
2022/12/06 14:31:16;;;;;;;8.15;5.85;;;;;;;;;;5015730;28;20018;-73
2022/12/06 14:33:43;;;;;;;11.32;6.07;;;;;;;;;;5024393;28;20040;-73
2022/12/06 14:36:30;;;;;;;9.60;5.13;;;;;;;;;;5074773;28;20396;-73
2022/12/06 14:39:16;;;;;;;9.93;5.72;;;;;;;;;;5074735;28;20028;-73
2022/12/06 14:44:35;;;;;;;10.70;5.78;;;;;;;;;;5074413;28;20024;-73
2022/12/06 14:47:01;;;;;;;12.30;5.63;;;;;;;;;;5074433;28;20027;-73
2022/12/06 14:52:20;;;;;;;7.85;4.35;;;;;;;;;;5074365;28;20016;-73
2022/12/06 14:54:48;;;;;;;8.57;4.38;;;;;;;;;;5073856;28;20481;-73
2022/12/06 14:57:20;;;;;;;5.53;3.38;;;;;;;;;;5073947;28;20036;-73
2022/12/06 14:59:46;;;;;;;7.32;3.40;;;;;;;;;;5074371;28;20028;-73
2022/12/06 15:02:23;;;;;;;5.78;3.55;;;;;;;;;;5074879;28;20046;-73
2022/12/06 15:04:49;;;;;;;8.90;4.65;;;;;;;;;;5074225;28;20027;-73
2022/12/06 15:07:34;;;;;;;13.02;6.35;;;;;;;;;;5073942;28;20024;-73
2022/12/06 15:10:08;;;;;;;13.23;5.68;;;;;;;;;;5074156;28;20025;-73
2022/12/06 15:12:54;;;;;;;9.18;5.90;;;;;;;;;;5072465;28;20027;-73
2022/12/06 15:15:32;;;;;;;10.00;6.25;;;;;;;;;;5074080;28;20031;-73
2022/12/06 15:18:07;;;;;;;21.27;7.57;;;;;;;;;;5073880;28;20489;-73
2022/12/06 15:20:34;;;;;;;20.23;7.63;;;;;;;;;;5073557;28;20023;-73
2022/12/06 15:23:00;;;;;;;12.60;7.80;;;;;;;;;;5072906;28;20025;-73